Terminal Aerodrome Forecast
Issued by NWS

Home | Current Version | Previous Version | Text Only | Print | Product List | Glossary On
Versions: 1 2 3 4 5 6 7 8 9 10 11 12 13 14 15 16 17 18 19 20 21
000
FTUS42 KJAX 301139
TAFVQQ
TAF
KVQQ 301139Z 3012/0112 VRB03KT 6SM BR SCT250
     FM301400 13007KT P6SM BKN250
     FM302100 13013KT P6SM SCT045 SCT250
     FM010200 VRB02KT P6SM SCT060 SCT250
     FM010800 16002KT 5SM BR SCT040 SCT250=

USA.gov is the U.S. government's official web portal to all federal, state and local government web resources and services.